sensor_id;sensor_type;location;lat;lon;timestamp;pressure;altitude;pressure_sealevel;temperature;humidity
20624;BME280;10471;42.736;23.346;2023-03-14T00:01:38;95827.16;;;1.64;100.00
20624;BME280;10471;42.736;23.346;2023-03-14T00:04:04;95824.81;;;1.56;100.00
20624;BME280;10471;42.736;23.346;2023-03-14T00:06:30;95822.06;;;1.51;100.00
20624;BME280;10471;42.736;23.346;2023-03-14T00:08:56;95819.94;;;1.35;100.00
20624;BME280;10471;42.736;23.346;2023-03-14T00:11:22;95813.38;;;1.33;100.00
20624;BME280;10471;42.736;23.346;2023-03-14T00:13:51;95811.16;;;1.36;100.00
20624;BME280;10471;42.736;23.346;2023-03-14T00:16:17;95803.38;;;1.36;100.00
20624;BME280;10471;42.736;23.346;2023-03-14T00:18:42;95802.56;;;1.36;100.00
20624;BME280;10471;42.736;23.346;2023-03-14T00:21:10;95797.75;;;1.39;100.00
20624;BME280;10471;42.736;23.346;2023-03-14T00:23:36;95788.53;;;1.43;100.00
20624;BME280;10471;42.736;23.346;2023-03-14T00:26:04;95785.38;;;1.41;100.00
20624;BME280;10471;42.736;23.346;2023-03-14T00:28:30;95787.97;;;1.41;100.00
20624;BME280;10471;42.736;23.346;2023-03-14T00:30:56;95790.53;;;1.48;100.00
20624;BME280;10471;42.736;23.346;2023-03-14T00:33:22;95781.13;;;1.47;100.00
20624;BME280;10471;42.736;23.346;2023-03-14T00:35:59;95780.53;;;1.51;100.00
20624;BME280;10471;42.736;23.346;2023-03-14T00:38:25;95782.13;;;1.52;100.00
20624;BME280;10471;42.736;23.346;2023-03-14T00:40:51;95773.72;;;1.50;100.00
20624;BME280;10471;42.736;23.346;2023-03-14T00:43:17;95774.94;;;1.48;100.00
20624;BME280;10471;42.736;23.346;2023-03-14T00:45:43;95774.16;;;1.47;100.00
20624;BME280;10471;42.736;23.346;2023-03-14T00:48:08;95775.72;;;1.48;100.00
20624;BME280;10471;42.736;23.346;2023-03-14T00:50:34;95768.97;;;1.47;100.00
20624;BME280;10471;42.736;23.346;2023-03-14T00:53:00;95776.16;;;1.45;100.00
20624;BME280;10471;42.736;23.346;2023-03-14T00:55:25;95769.97;;;1.46;100.00
20624;BME280;10471;42.736;23.346;2023-03-14T00:57:50;95768.81;;;1.42;100.00
20624;BME280;10471;42.736;23.346;2023-03-14T01:00:16;95753.63;;;1.39;100.00
20624;BME280;10471;42.736;23.346;2023-03-14T01:02:42;95753.41;;;1.41;100.00
20624;BME280;10471;42.736;23.346;2023-03-14T01:05:07;95753.63;;;1.39;100.00
20624;BME280;10471;42.736;23.346;2023-03-14T01:07:35;95755.47;;;1.32;100.00
20624;BME280;10471;42.736;23.346;2023-03-14T01:10:02;95760.28;;;1.29;100.00
20624;BME280;10471;42.736;23.346;2023-03-14T01:12:27;95752.69;;;1.27;100.00
20624;BME280;10471;42.736;23.346;2023-03-14T01:14:53;95745.09;;;1.32;100.00
20624;BME280;10471;42.736;23.346;2023-03-14T01:17:18;95739.50;;;1.35;100.00
20624;BME280;10471;42.736;23.346;2023-03-14T01:19:43;95741.50;;;1.33;100.00
20624;BME280;10471;42.736;23.346;2023-03-14T01:22:09;95739.50;;;1.35;100.00
20624;BME280;10471;42.736;23.346;2023-03-14T01:24:36;95735.91;;;1.30;100.00
20624;BME280;10471;42.736;23.346;2023-03-14T01:27:02;95732.81;;;1.22;100.00
20624;BME280;10471;42.736;23.346;2023-03-14T01:29:27;95737.56;;;1.25;100.00
20624;BME280;10471;42.736;23.346;2023-03-14T01:31:53;95727.19;;;1.25;100.00
20624;BME280;10471;42.736;23.346;2023-03-14T01:34:18;95734.38;;;1.23;100.00
20624;BME280;10471;42.736;23.346;2023-03-14T01:36:43;95722.41;;;1.22;100.00
20624;BME280;10471;42.736;23.346;2023-03-14T01:39:09;95728.44;;;1.16;100.00
20624;BME280;10471;42.736;23.346;2023-03-14T01:41:35;95724.25;;;1.15;100.00
20624;BME280;10471;42.736;23.346;2023-03-14T01:44:01;95719.69;;;1.10;100.00
20624;BME280;10471;42.736;23.346;2023-03-14T01:46:42;95724.09;;;1.10;100.00
20624;BME280;10471;42.736;23.346;2023-03-14T01:49:26;95713.75;;;0.97;100.00
20624;BME280;10471;42.736;23.346;2023-03-14T01:52:00;95711.00;;;0.92;100.00
20624;BME280;10471;42.736;23.346;2023-03-14T01:54:49;95705.41;;;0.88;100.00
20624;BME280;10471;42.736;23.346;2023-03-14T01:57:20;95702.22;;;0.93;100.00
20624;BME280;10471;42.736;23.346;2023-03-14T02:00:11;95706.25;;;0.89;100.00
20624;BME280;10471;42.736;23.346;2023-03-14T02:02:41;95705.63;;;0.87;100.00
20624;BME280;10471;42.736;23.346;2023-03-14T02:05:10;95706.25;;;0.89;100.00
20624;BME280;10471;42.736;23.346;2023-03-14T02:07:48;95704.50;;;0.76;100.00
20624;BME280;10471;42.736;23.346;2023-03-14T02:10:16;95709.13;;;0.68;100.00
20624;BME280;10471;42.736;23.346;2023-03-14T02:12:45;95703.94;;;0.68;100.00
20624;BME280;10471;42.736;23.346;2023-03-14T02:15:11;95702.78;;;0.64;100.00
20624;BME280;10471;42.736;23.346;2023-03-14T02:17:37;95702.22;;;0.49;100.00
20624;BME280;10471;42.736;23.346;2023-03-14T02:22:47;95704.44;;;0.39;100.00
20624;BME280;10471;42.736;23.346;2023-03-14T02:25:35;95694.09;;;0.33;100.00
20624;BME280;10471;42.736;23.346;2023-03-14T02:28:04;95695.75;;;0.14;100.00
20624;BME280;10471;42.736;23.346;2023-03-14T02:30:31;95698.13;;;0.22;100.00
20624;BME280;10471;42.736;23.346;2023-03-14T02:33:04;95700.53;;;0.17;100.00
20624;BME280;10471;42.736;23.346;2023-03-14T02:35:37;95697.78;;;-0.01;100.00
20624;BME280;10471;42.736;23.346;2023-03-14T02:38:31;95706.97;;;-0.17;100.00
20624;BME280;10471;42.736;23.346;2023-03-14T02:40:59;95709.34;;;-0.22;100.00
20624;BME280;10471;42.736;23.346;2023-03-14T02:43:24;95700.41;;;-0.13;100.00
20624;BME280;10471;42.736;23.346;2023-03-14T02:45:51;95706.75;;;-0.09;100.00
20624;BME280;10471;42.736;23.346;2023-03-14T02:48:23;95704.94;;;-0.03;100.00
20624;BME280;10471;42.736;23.346;2023-03-14T02:50:53;95714.94;;;-0.06;100.00
20624;BME280;10471;42.736;23.346;2023-03-14T02:53:31;95710.34;;;-0.10;100.00
20624;BME280;10471;42.736;23.346;2023-03-14T02:55:57;95702.56;;;-0.04;100.00
20624;BME280;10471;42.736;23.346;2023-03-14T02:58:22;95702.94;;;-0.01;100.00
20624;BME280;10471;42.736;23.346;2023-03-14T03:00:48;95706.34;;;0.06;100.00
20624;BME280;10471;42.736;23.346;2023-03-14T03:03:14;95710.34;;;0.02;100.00
20624;BME280;10471;42.736;23.346;2023-03-14T03:05:40;95712.16;;;-0.11;100.00
20624;BME280;10471;42.736;23.346;2023-03-14T03:08:05;95718.69;;;-0.02;100.00
20624;BME280;10471;42.736;23.346;2023-03-14T03:10:31;95718.88;;;0.03;100.00
20624;BME280;10471;42.736;23.346;2023-03-14T03:12:56;95708.13;;;-0.01;100.00
20624;BME280;10471;42.736;23.346;2023-03-14T03:15:22;95702.75;;;0.07;100.00
20624;BME280;10471;42.736;23.346;2023-03-14T03:17:48;95707.09;;;0.13;100.00
20624;BME280;10471;42.736;23.346;2023-03-14T03:20:13;95712.88;;;0.22;100.00
20624;BME280;10471;42.736;23.346;2023-03-14T03:22:39;95714.47;;;0.16;100.00
20624;BME280;10471;42.736;23.346;2023-03-14T03:25:06;95707.31;;;0.12;100.00
20624;BME280;10471;42.736;23.346;2023-03-14T03:27:34;95709.91;;;0.12;100.00
20624;BME280;10471;42.736;23.346;2023-03-14T03:30:00;95711.28;;;0.14;100.00
20624;BME280;10471;42.736;23.346;2023-03-14T03:32:26;95704.75;;;0.05;100.00
20624;BME280;10471;42.736;23.346;2023-03-14T03:34:52;95702.94;;;0.06;100.00
20624;BME280;10471;42.736;23.346;2023-03-14T03:37:18;95699.97;;;0.02;100.00
20624;BME280;10471;42.736;23.346;2023-03-14T03:39:43;95703.19;;;-0.08;100.00
20624;BME280;10471;42.736;23.346;2023-03-14T03:42:09;95700.56;;;-0.02;100.00
20624;BME280;10471;42.736;23.346;2023-03-14T03:44:35;95691.41;;;-0.04;100.00
20624;BME280;10471;42.736;23.346;2023-03-14T03:47:00;95700.59;;;-0.08;100.00
20624;BME280;10471;42.736;23.346;2023-03-14T03:49:31;95711.53;;;-0.13;100.00
20624;BME280;10471;42.736;23.346;2023-03-14T03:51:57;95721.69;;;-0.18;100.00
20624;BME280;10471;42.736;23.346;2023-03-14T03:54:22;95717.91;;;-0.15;100.00
20624;BME280;10471;42.736;23.346;2023-03-14T03:56:47;95721.31;;;-0.08;100.00
20624;BME280;10471;42.736;23.346;2023-03-14T03:59:13;95710.13;;;-0.03;100.00
20624;BME280;10471;42.736;23.346;2023-03-14T04:01:38;95712.13;;;-0.04;100.00
20624;BME280;10471;42.736;23.346;2023-03-14T04:04:03;95713.13;;;-0.05;100.00
20624;BME280;10471;42.736;23.346;2023-03-14T04:06:29;95713.31;;;-0.07;100.00
20624;BME280;10471;42.736;23.346;2023-03-14T04:08:55;95710.53;;;-0.05;100.00
20624;BME280;10471;42.736;23.346;2023-03-14T04:11:20;95704.94;;;-0.03;100.00
20624;BME280;10471;42.736;23.346;2023-03-14T04:13:45;95720.09;;;0.00;100.00
20624;BME280;10471;42.736;23.346;2023-03-14T04:16:17;95721.69;;;0.01;100.00
20624;BME280;10471;42.736;23.346;2023-03-14T04:18:42;95706.16;;;0.01;100.00
20624;BME280;10471;42.736;23.346;2023-03-14T04:21:08;95695.41;;;-0.02;100.00
20624;BME280;10471;42.736;23.346;2023-03-14T04:23:33;95697.00;;;-0.01;100.00
20624;BME280;10471;42.736;23.346;2023-03-14T04:25:59;95694.59;;;-0.03;100.00
20624;BME280;10471;42.736;23.346;2023-03-14T04:28:24;95691.41;;;-0.04;100.00
20624;BME280;10471;42.736;23.346;2023-03-14T04:30:49;95695.81;;;-0.11;100.00
20624;BME280;10471;42.736;23.346;2023-03-14T04:33:15;95694.63;;;-0.15;100.00
20624;BME280;10471;42.736;23.346;2023-03-14T04:35:43;95692.63;;;-0.13;100.00
20624;BME280;10471;42.736;23.346;2023-03-14T04:38:09;95679.09;;;-0.15;100.00
20624;BME280;10471;42.736;23.346;2023-03-14T04:40:39;95679.50;;;-0.18;100.00
20624;BME280;10471;42.736;23.346;2023-03-14T04:43:04;95674.31;;;-0.18;100.00
20624;BME280;10471;42.736;23.346;2023-03-14T04:45:30;95679.88;;;-0.21;100.00
20624;BME280;10471;42.736;23.346;2023-03-14T04:47:55;95676.69;;;-0.23;100.00
20624;BME280;10471;42.736;23.346;2023-03-14T04:50:21;95672.34;;;-0.23;100.00
20624;BME280;10471;42.736;23.346;2023-03-14T04:52:46;95673.91;;;-0.28;100.00
20624;BME280;10471;42.736;23.346;2023-03-14T04:55:12;95666.75;;;-0.26;100.00
20624;BME280;10471;42.736;23.346;2023-03-14T04:57:37;95667.94;;;-0.29;100.00
20624;BME280;10471;42.736;23.346;2023-03-14T05:00:04;95664.38;;;-0.28;100.00
20624;BME280;10471;42.736;23.346;2023-03-14T05:02:32;95673.13;;;-0.29;100.00
20624;BME280;10471;42.736;23.346;2023-03-14T05:04:58;95665.19;;;-0.34;100.00
20624;BME280;10471;42.736;23.346;2023-03-14T05:07:23;95664.94;;;-0.26;100.00
20624;BME280;10471;42.736;23.346;2023-03-14T05:09:49;95666.75;;;-0.26;100.00
20624;BME280;10471;42.736;23.346;2023-03-14T05:12:14;95657.59;;;-0.22;100.00
20624;BME280;10471;42.736;23.346;2023-03-14T05:14:39;95664.16;;;-0.20;100.00
20624;BME280;10471;42.736;23.346;2023-03-14T05:17:05;95663.13;;;-0.12;100.00
20624;BME280;10471;42.736;23.346;2023-03-14T05:19:30;95671.09;;;-0.07;100.00
20624;BME280;10471;42.736;23.346;2023-03-14T05:21:56;95667.69;;;0.05;100.00
20624;BME280;10471;42.736;23.346;2023-03-14T05:24:21;95665.47;;;0.08;100.00
20624;BME280;10471;42.736;23.346;2023-03-14T05:26:47;95662.25;;;0.19;100.00
20624;BME280;10471;42.736;23.346;2023-03-14T05:29:12;95655.44;;;0.31;100.00
20624;BME280;10471;42.736;23.346;2023-03-14T05:31:37;95662.19;;;0.39;100.00
20624;BME280;10471;42.736;23.346;2023-03-14T05:34:03;95662.94;;;0.52;100.00
20624;BME280;10471;42.736;23.346;2023-03-14T05:36:28;95660.09;;;0.60;100.00
20624;BME280;10471;42.736;23.346;2023-03-14T05:38:54;95659.44;;;0.71;100.00
20624;BME280;10471;42.736;23.346;2023-03-14T05:41:19;95661.97;;;0.84;100.00
20624;BME280;10471;42.736;23.346;2023-03-14T05:43:44;95665.88;;;0.99;100.00
20624;BME280;10471;42.736;23.346;2023-03-14T05:46:10;95665.41;;;1.09;100.00
20624;BME280;10471;42.736;23.346;2023-03-14T05:48:35;95658.56;;;1.21;100.00
20624;BME280;10471;42.736;23.346;2023-03-14T05:51:00;95663.63;;;1.33;100.00
20624;BME280;10471;42.736;23.346;2023-03-14T05:53:26;95665.16;;;1.47;100.00
20624;BME280;10471;42.736;23.346;2023-03-14T05:55:55;95663.22;;;1.61;100.00
20624;BME280;10471;42.736;23.346;2023-03-14T05:58:21;95660.13;;;1.70;100.00
20624;BME280;10471;42.736;23.346;2023-03-14T06:00:47;95654.69;;;1.78;100.00
20624;BME280;10471;42.736;23.346;2023-03-14T06:03:12;95650.56;;;1.89;100.00
20624;BME280;10471;42.736;23.346;2023-03-14T06:05:38;95664.69;;;1.99;100.00
20624;BME280;10471;42.736;23.346;2023-03-14T06:08:03;95650.16;;;2.09;100.00
20624;BME280;10471;42.736;23.346;2023-03-14T06:10:29;95654.28;;;2.17;100.00
20624;BME280;10471;42.736;23.346;2023-03-14T06:12:54;95655.56;;;2.26;100.00
20624;BME280;10471;42.736;23.346;2023-03-14T06:15:20;95653.47;;;2.34;100.00
20624;BME280;10471;42.736;23.346;2023-03-14T06:17:45;95649.38;;;2.45;100.00
20624;BME280;10471;42.736;23.346;2023-03-14T06:20:11;95647.69;;;2.50;100.00
20624;BME280;10471;42.736;23.346;2023-03-14T06:22:37;95668.78;;;2.60;100.00
20624;BME280;10471;42.736;23.346;2023-03-14T06:25:04;95657.84;;;2.69;100.00
20624;BME280;10471;42.736;23.346;2023-03-14T06:27:29;95664.16;;;2.80;100.00
20624;BME280;10471;42.736;23.346;2023-03-14T06:29:55;95658.75;;;2.93;100.00
20624;BME280;10471;42.736;23.346;2023-03-14T06:32:20;95664.22;;;3.03;100.00
20624;BME280;10471;42.736;23.346;2023-03-14T06:34:46;95658.91;;;3.09;100.00
20624;BME280;10471;42.736;23.346;2023-03-14T06:37:11;95656.00;;;3.17;100.00
20624;BME280;10471;42.736;23.346;2023-03-14T06:39:37;95645.38;;;3.30;100.00
20624;BME280;10471;42.736;23.346;2023-03-14T06:42:03;95638.41;;;3.42;100.00
20624;BME280;10471;42.736;23.346;2023-03-14T06:44:29;95641.59;;;3.55;100.00
20624;BME280;10471;42.736;23.346;2023-03-14T06:46:54;95644.31;;;3.72;100.00
20624;BME280;10471;42.736;23.346;2023-03-14T06:49:20;95639.66;;;3.85;100.00
20624;BME280;10471;42.736;23.346;2023-03-14T06:51:45;95635.84;;;3.99;100.00
20624;BME280;10471;42.736;23.346;2023-03-14T06:54:10;95634.47;;;4.08;100.00
20624;BME280;10471;42.736;23.346;2023-03-14T06:56:36;95630.81;;;4.20;100.00
20624;BME280;10471;42.736;23.346;2023-03-14T06:59:02;95627.41;;;4.31;100.00
20624;BME280;10471;42.736;23.346;2023-03-14T07:01:29;95618.88;;;4.36;100.00
20624;BME280;10471;42.736;23.346;2023-03-14T07:03:55;95619.88;;;4.46;100.00
20624;BME280;10471;42.736;23.346;2023-03-14T07:06:20;95615.88;;;4.55;100.00
20624;BME280;10471;42.736;23.346;2023-03-14T07:08:46;95620.84;;;4.68;100.00
20624;BME280;10471;42.736;23.346;2023-03-14T07:11:11;95602.31;;;4.69;100.00
20624;BME280;10471;42.736;23.346;2023-03-14T07:13:40;95614.88;;;4.84;100.00
20624;BME280;10471;42.736;23.346;2023-03-14T07:16:06;95617.66;;;4.94;100.00
20624;BME280;10471;42.736;23.346;2023-03-14T07:18:32;95624.06;;;4.86;100.00
20624;BME280;10471;42.736;23.346;2023-03-14T07:20:58;95617.34;;;4.90;100.00
20624;BME280;10471;42.736;23.346;2023-03-14T07:23:23;95616.66;;;4.95;96.55
20624;BME280;10471;42.736;23.346;2023-03-14T07:25:48;95608.00;;;4.94;97.97
20624;BME280;10471;42.736;23.346;2023-03-14T07:28:15;95610.53;;;5.06;98.35
20624;BME280;10471;42.736;23.346;2023-03-14T07:30:41;95606.06;;;5.18;98.91
20624;BME280;10471;42.736;23.346;2023-03-14T07:33:06;95604.19;;;5.29;94.45
20624;BME280;10471;42.736;23.346;2023-03-14T07:35:32;95596.25;;;5.41;93.82
20624;BME280;10471;42.736;23.346;2023-03-14T07:37:57;95603.56;;;5.55;91.24
20624;BME280;10471;42.736;23.346;2023-03-14T07:40:22;95592.00;;;5.68;88.82
20624;BME280;10471;42.736;23.346;2023-03-14T07:42:48;95596.44;;;5.67;87.77
20624;BME280;10471;42.736;23.346;2023-03-14T07:45:14;95589.38;;;5.84;87.72
20624;BME280;10471;42.736;23.346;2023-03-14T07:47:40;95580.09;;;5.93;88.05
20624;BME280;10471;42.736;23.346;2023-03-14T07:50:06;95575.06;;;6.08;85.64
20624;BME280;10471;42.736;23.346;2023-03-14T07:52:32;95578.84;;;6.17;83.44
20624;BME280;10471;42.736;23.346;2023-03-14T07:54:57;95582.22;;;6.34;78.89
20624;BME280;10471;42.736;23.346;2023-03-14T07:57:22;95576.78;;;6.40;78.13
20624;BME280;10471;42.736;23.346;2023-03-14T07:59:49;95573.75;;;6.48;74.19
20624;BME280;10471;42.736;23.346;2023-03-14T08:02:15;95573.56;;;6.54;75.36
20624;BME280;10471;42.736;23.346;2023-03-14T08:04:40;95574.69;;;6.63;73.46
20624;BME280;10471;42.736;23.346;2023-03-14T08:07:06;95575.84;;;6.72;74.53
20624;BME280;10471;42.736;23.346;2023-03-14T08:09:31;95566.63;;;6.91;74.25
20624;BME280;10471;42.736;23.346;2023-03-14T08:11:57;95568.84;;;7.04;73.64
20624;BME280;10471;42.736;23.346;2023-03-14T08:14:22;95564.28;;;7.21;74.63
20624;BME280;10471;42.736;23.346;2023-03-14T08:16:49;95563.66;;;7.40;75.11
20624;BME280;10471;42.736;23.346;2023-03-14T08:19:15;95560.88;;;7.52;70.20
20624;BME280;10471;42.736;23.346;2023-03-14T08:21:41;95561.16;;;7.55;68.97
20624;BME280;10471;42.736;23.346;2023-03-14T08:24:06;95551.53;;;7.66;69.88
20624;BME280;10471;42.736;23.346;2023-03-14T08:26:32;95555.03;;;7.81;69.43
20624;BME280;10471;42.736;23.346;2023-03-14T08:28:57;95551.44;;;7.92;68.81
20624;BME280;10471;42.736;23.346;2023-03-14T08:31:22;95553.59;;;8.05;68.21
20624;BME280;10471;42.736;23.346;2023-03-14T08:33:48;95544.50;;;8.17;68.10
20624;BME280;10471;42.736;23.346;2023-03-14T08:36:13;95550.88;;;8.31;65.23
20624;BME280;10471;42.736;23.346;2023-03-14T08:38:38;95538.25;;;8.28;66.38
20624;BME280;10471;42.736;23.346;2023-03-14T08:41:04;95538.84;;;8.40;63.60
20624;BME280;10471;42.736;23.346;2023-03-14T08:43:30;95532.59;;;8.51;63.92
20624;BME280;10471;42.736;23.346;2023-03-14T08:46:00;95537.28;;;8.49;63.00
20624;BME280;10471;42.736;23.346;2023-03-14T08:48:26;95532.03;;;8.49;64.45
20624;BME280;10471;42.736;23.346;2023-03-14T08:50:52;95524.19;;;8.54;65.15
20624;BME280;10471;42.736;23.346;2023-03-14T08:53:17;95522.41;;;8.74;61.31
20624;BME280;10471;42.736;23.346;2023-03-14T08:55:43;95509.56;;;8.93;62.26
20624;BME280;10471;42.736;23.346;2023-03-14T08:58:09;95505.91;;;9.09;59.96
20624;BME280;10471;42.736;23.346;2023-03-14T09:00:34;95489.59;;;9.26;59.34
20624;BME280;10471;42.736;23.346;2023-03-14T09:02:59;95495.38;;;9.43;58.92
20624;BME280;10471;42.736;23.346;2023-03-14T09:05:25;95492.72;;;9.53;59.83
20624;BME280;10471;42.736;23.346;2023-03-14T09:07:50;95480.63;;;9.72;55.91
20624;BME280;10471;42.736;23.346;2023-03-14T09:10:16;95485.34;;;9.70;54.12
20624;BME280;10471;42.736;23.346;2023-03-14T09:12:41;95481.38;;;9.77;54.58
20624;BME280;10471;42.736;23.346;2023-03-14T09:15:07;95466.91;;;9.80;55.10
20624;BME280;10471;42.736;23.346;2023-03-14T09:17:33;95468.72;;;9.89;56.15
20624;BME280;10471;42.736;23.346;2023-03-14T09:19:58;95465.53;;;10.02;55.06
20624;BME280;10471;42.736;23.346;2023-03-14T09:22:23;95464.94;;;10.20;55.24
20624;BME280;10471;42.736;23.346;2023-03-14T09:24:49;95443.56;;;10.32;53.62
20624;BME280;10471;42.736;23.346;2023-03-14T09:27:15;95449.34;;;10.34;54.43
20624;BME280;10471;42.736;23.346;2023-03-14T09:29:41;95439.25;;;10.45;53.69
20624;BME280;10471;42.736;23.346;2023-03-14T09:32:06;95435.50;;;10.56;53.05
20624;BME280;10471;42.736;23.346;2023-03-14T09:34:31;95435.38;;;10.76;54.48
20624;BME280;10471;42.736;23.346;2023-03-14T09:36:57;95429.66;;;10.69;51.79
20624;BME280;10471;42.736;23.346;2023-03-14T09:39:22;95419.72;;;10.90;51.82
20624;BME280;10471;42.736;23.346;2023-03-14T09:41:50;95415.13;;;11.05;51.38
20624;BME280;10471;42.736;23.346;2023-03-14T09:44:27;95415.53;;;11.22;51.94
20624;BME280;10471;42.736;23.346;2023-03-14T09:46:57;95408.66;;;11.49;51.89
20624;BME280;10471;42.736;23.346;2023-03-14T09:51:53;95401.66;;;11.86;49.96
20624;BME280;10471;42.736;23.346;2023-03-14T09:54:37;95393.63;;;11.96;48.95
20624;BME280;10471;42.736;23.346;2023-03-14T09:57:05;95385.38;;;12.21;47.97
20624;BME280;10471;42.736;23.346;2023-03-14T09:59:33;95379.25;;;12.44;47.29
20624;BME280;10471;42.736;23.346;2023-03-14T10:02:01;95375.63;;;12.58;46.69
20624;BME280;10471;42.736;23.346;2023-03-14T10:04:28;95366.94;;;12.71;48.22
20624;BME280;10471;42.736;23.346;2023-03-14T10:06:55;95367.16;;;12.75;48.46
20624;BME280;10471;42.736;23.346;2023-03-14T10:09:22;95363.88;;;13.01;48.09
20624;BME280;10471;42.736;23.346;2023-03-14T10:11:52;95346.38;;;13.18;47.53
20624;BME280;10471;42.736;23.346;2023-03-14T10:14:32;95346.19;;;13.28;47.14
20624;BME280;10471;42.736;23.346;2023-03-14T10:17:08;95344.13;;;13.25;46.41
20624;BME280;10471;42.736;23.346;2023-03-14T10:19:35;95330.00;;;13.30;47.27
20624;BME280;10471;42.736;23.346;2023-03-14T10:22:03;95326.88;;;13.41;45.87
20624;BME280;10471;42.736;23.346;2023-03-14T10:24:33;95330.72;;;13.49;46.30
20624;BME280;10471;42.736;23.346;2023-03-14T10:27:02;95317.97;;;13.64;47.96
20624;BME280;10471;42.736;23.346;2023-03-14T10:29:30;95309.91;;;13.82;45.53
20624;BME280;10471;42.736;23.346;2023-03-14T10:32:06;95314.13;;;13.97;45.26
20624;BME280;10471;42.736;23.346;2023-03-14T10:34:37;95305.88;;;14.12;45.09
20624;BME280;10471;42.736;23.346;2023-03-14T10:37:22;95298.13;;;14.37;45.01
20624;BME280;10471;42.736;23.346;2023-03-14T10:39:53;95272.78;;;14.66;44.70
20624;BME280;10471;42.736;23.346;2023-03-14T10:42:25;95271.25;;;14.74;44.39
20624;BME280;10471;42.736;23.346;2023-03-14T10:44:58;95260.31;;;14.67;44.41
20624;BME280;10471;42.736;23.346;2023-03-14T10:47:26;95266.50;;;14.84;44.15
20624;BME280;10471;42.736;23.346;2023-03-14T10:49:53;95255.13;;;14.92;42.54
20624;BME280;10471;42.736;23.346;2023-03-14T10:52:21;95243.97;;;15.04;43.36
20624;BME280;10471;42.736;23.346;2023-03-14T10:55:10;95240.50;;;15.25;43.81
20624;BME280;10471;42.736;23.346;2023-03-14T10:57:40;95228.97;;;15.38;42.64
20624;BME280;10471;42.736;23.346;2023-03-14T11:00:27;95230.41;;;15.44;41.94
20624;BME280;10471;42.736;23.346;2023-03-14T11:03:13;95216.03;;;15.45;41.98
20624;BME280;10471;42.736;23.346;2023-03-14T11:05:56;95214.50;;;15.61;41.98
20624;BME280;10471;42.736;23.346;2023-03-14T11:08:26;95210.63;;;15.67;42.03
20624;BME280;10471;42.736;23.346;2023-03-14T11:11:02;95204.22;;;15.68;40.95
20624;BME280;10471;42.736;23.346;2023-03-14T11:22:09;95166.88;;;16.40;39.48
20624;BME280;10471;42.736;23.346;2023-03-14T11:27:45;95146.00;;;17.05;39.90
20624;BME280;10471;42.736;23.346;2023-03-14T11:32:59;95139.91;;;17.04;39.47
20624;BME280;10471;42.736;23.346;2023-03-14T11:35:30;95130.97;;;17.37;37.90
20624;BME280;10471;42.736;23.346;2023-03-14T11:40:49;95117.53;;;17.95;36.75
20624;BME280;10471;42.736;23.346;2023-03-14T11:45:58;95107.28;;;18.49;35.47
20624;BME280;10471;42.736;23.346;2023-03-14T11:48:37;95099.91;;;18.35;36.05
20624;BME280;10471;42.736;23.346;2023-03-14T11:51:09;95091.94;;;18.46;36.13
20624;BME280;10471;42.736;23.346;2023-03-14T11:56:50;95086.84;;;18.53;34.52
20624;BME280;10471;42.736;23.346;2023-03-14T12:02:10;95076.22;;;19.13;35.22
20624;BME280;10471;42.736;23.346;2023-03-14T12:04:50;95072.88;;;19.28;33.69
20624;BME280;10471;42.736;23.346;2023-03-14T12:07:21;95059.72;;;19.35;34.46
20624;BME280;10471;42.736;23.346;2023-03-14T12:09:50;95056.59;;;19.33;34.04
20624;BME280;10471;42.736;23.346;2023-03-14T12:12:22;95050.31;;;19.53;33.22
20624;BME280;10471;42.736;23.346;2023-03-14T12:14:58;95038.00;;;19.75;32.63
20624;BME280;10471;42.736;23.346;2023-03-14T12:17:36;95031.53;;;19.76;33.11
20624;BME280;10471;42.736;23.346;2023-03-14T12:22:45;95025.13;;;19.54;33.20
20624;BME280;10471;42.736;23.346;2023-03-14T12:30:30;95011.63;;;19.89;33.00
20624;BME280;10471;42.736;23.346;2023-03-14T12:35:48;94987.00;;;19.96;31.67
20624;BME280;10471;42.736;23.346;2023-03-14T12:38:49;94996.72;;;20.31;31.83
20624;BME280;10471;42.736;23.346;2023-03-14T12:41:27;94992.41;;;20.27;32.60
20624;BME280;10471;42.736;23.346;2023-03-14T12:43:54;94984.47;;;20.61;31.86
20624;BME280;10471;42.736;23.346;2023-03-14T12:46:27;94984.53;;;20.64;30.61
20624;BME280;10471;42.736;23.346;2023-03-14T12:49:04;94981.97;;;19.94;31.88
20624;BME280;10471;42.736;23.346;2023-03-14T12:51:39;94975.09;;;19.93;31.67
20624;BME280;10471;42.736;23.346;2023-03-14T12:59:50;94960.78;;;20.32;30.89
20624;BME280;10471;42.736;23.346;2023-03-14T13:02:24;94960.63;;;20.56;31.49
20624;BME280;10471;42.736;23.346;2023-03-14T13:05:01;94949.22;;;20.59;30.96
20624;BME280;10471;42.736;23.346;2023-03-14T13:12:56;94935.91;;;20.47;31.67
20624;BME280;10471;42.736;23.346;2023-03-14T13:18:10;94927.00;;;20.58;32.00
20624;BME280;10471;42.736;23.346;2023-03-14T13:20:58;94916.47;;;20.35;31.13
20624;BME280;10471;42.736;23.346;2023-03-14T13:23:33;94914.56;;;20.50;30.55
20624;BME280;10471;42.736;23.346;2023-03-14T13:26:00;94905.28;;;20.79;31.54
20624;BME280;10471;42.736;23.346;2023-03-14T13:28:26;94897.44;;;21.05;30.64
20624;BME280;10471;42.736;23.346;2023-03-14T13:30:58;94893.31;;;21.26;30.34
20624;BME280;10471;42.736;23.346;2023-03-14T13:33:24;94892.16;;;21.46;30.24
20624;BME280;10471;42.736;23.346;2023-03-14T13:38:22;94888.00;;;20.92;29.61
20624;BME280;10471;42.736;23.346;2023-03-14T13:40:50;94881.09;;;20.75;30.17
20624;BME280;10471;42.736;23.346;2023-03-14T13:45:47;94868.06;;;20.74;30.46
20624;BME280;10471;42.736;23.346;2023-03-14T13:48:13;94865.06;;;20.60;30.23
20624;BME280;10471;42.736;23.346;2023-03-14T13:50:45;94853.97;;;20.42;29.76
20624;BME280;10471;42.736;23.346;2023-03-14T13:53:11;94853.50;;;20.56;29.78
20624;BME280;10471;42.736;23.346;2023-03-14T13:55:37;94844.81;;;20.28;30.59